Terminal Aerodrome Forecast
Issued by NWS Jackson, MS

Home | Current Version | Previous Version | Text Only | Print | Product List | Glossary On
Versions: 1 2 3 4 5 6 7 8 9 10 11 12
101
FTUS44 KJAN 280536
TAFMEI
TAF
KMEI 280536Z 2806/2906 19007KT P6SM SCT040
     FM280800 20007KT P6SM BKN012 BKN025
     FM281500 22014G21KT P6SM SCT025 BKN045
     FM282200 21007KT P6SM VCTS BKN050CB=

USA.gov is the U.S. government's official web portal to all federal, state and local government web resources and services.